Dewey R — WDC3093 — position and weather

sailwx.info

Track history (hours):
 
Tides and Currents Weather Stations Pressure Air Temp Water Temp Dewpoint Dewpoint Depression Visibility Wind Speed Wind Dir Waves Ship Positions

Dewey R

Owner: Apex Towing Company a division of Apex Oil Company, St. Louis, MO. More information available from US FCC via Universal Licensing System and Coast Guard Vessel Documentation Center.

Last reported at 2017-Sep-15 13:46 UTC. Time now 2017-Sep-20 18:14 UTC.
Position N 32°45' W 091°09'.

Length 8 m; draft 3 m.

MMSI: 367002540.

Date/timePositionNaut miles runAvg speedWind from/ knotsBaromVisibWave heightAir tempDewpointWater temp
2017-Sep-15 13:46N 32°45' W 091°09'5 2.4
2017-Sep-15 11:47N 32°40' W 091°08'5 4.2
2017-Sep-15 10:41N 32°35' W 091°08'1 5.5
2017-Sep-15 10:30N 32°35' W 091°07'5 4.9
2017-Sep-15 09:31N 32°30' W 091°07'0 6.1
2017-Sep-15 09:30N 32°30' W 091°07'3 5.8
2017-Sep-15 09:00N 32°27' W 091°05'3 5.8
2017-Sep-15 08:30N 32°26' W 091°02'3 5.3
2017-Sep-15 08:00N 32°25' W 090°60'2 4.8
2017-Sep-15 07:30N 32°22' W 091°00'2 4.9
2017-Sep-15 07:00N 32°21' W 090°58'3 5.6
2017-Sep-15 06:30N 32°21' W 090°55'2 4.8
2017-Sep-15 06:00N 32°18' W 090°55'3 5.9
2017-Sep-15 05:30N 32°16' W 090°58'3 5.4
2017-Sep-15 05:00N 32°14' W 090°59'3 5.8
2017-Sep-15 04:30N 32°11' W 090°60'3 5.5
2017-Sep-15 04:00N 32°08' W 091°00'2 4.8
2017-Sep-15 03:30N 32°07' W 091°03'3 5.3
2017-Sep-15 02:59N 32°08' W 091°06'  
2017-Sep-12 18:22N 29°48' W 092°05'2 5.6
2017-Sep-12 18:00N 29°47' W 092°08'1 2.6
2017-Sep-12 17:30N 29°47' W 092°09'0 0.0
2017-Sep-12 17:00N 29°47' W 092°09'0 0.0
2017-Sep-12 16:30N 29°47' W 092°09'0 0.0
2017-Sep-12 16:00N 29°47' W 092°09'0 0.0
2017-Sep-12 15:30N 29°47' W 092°09'0 0.0
2017-Sep-12 15:00N 29°47' W 092°09'0 0.1
2017-Sep-12 14:30N 29°47' W 092°09'3 5.5
2017-Sep-12 14:00N 29°47' W 092°12'2 4.1
2017-Sep-12 13:29N 29°48' W 092°15'0 0.6
2017-Sep-12 12:57N 29°48' W 092°15'45 5.4
2017-Sep-12 04:39N 29°56' W 093°06'1 5.1
2017-Sep-12 04:28N 29°56' W 093°07'2 5.0
2017-Sep-12 04:00N 29°56' W 093°10'3 5.2
2017-Sep-12 03:30N 29°58' W 093°12'3 5.0
2017-Sep-12 03:00N 30°00' W 093°13'2 4.6
2017-Sep-12 02:30N 30°02' W 093°15'2 4.7
2017-Sep-12 02:00N 30°04' W 093°16'2 4.6
2017-Sep-12 01:30N 30°06' W 093°18'2 3.9
2017-Sep-12 01:00N 30°05' W 093°20'2 3.8
2017-Sep-12 00:30N 30°04' W 093°22'0 0.0
2017-Sep-12 00:00N 30°04' W 093°22'0 0.0
2017-Sep-11 23:30N 30°04' W 093°22'0 0.0
2017-Sep-11 23:00N 30°04' W 093°22'0 0.0
2017-Sep-11 22:30N 30°04' W 093°22'0 0.0
2017-Sep-11 22:00N 30°04' W 093°22'0 0.0
2017-Sep-11 21:30N 30°04' W 093°22'1 1.6
2017-Sep-11 21:00N 30°04' W 093°21'3 5.9
2017-Sep-11 20:30N 30°06' W 093°19'3 5.8
2017-Sep-11 20:00N 30°04' W 093°16'3 5.6
2017-Sep-11 19:30N 30°02' W 093°15'1 2.8
2017-Sep-11 19:00N 30°01' W 093°14'0 0.0
2017-Sep-11 18:30N 30°01' W 093°14'0 0.0
2017-Sep-11 18:00N 30°01' W 093°14'0 0.0
2017-Sep-11 17:30N 30°01' W 093°14'0 0.0
2017-Sep-11 17:00N 30°01' W 093°14'0 0.0
2017-Sep-11 16:30N 30°01' W 093°14'0 0.0
2017-Sep-11 16:00N 30°01' W 093°14'0 0.0
2017-Sep-11 15:30N 30°01' W 093°14'0 0.0
2017-Sep-11 14:52N 30°01' W 093°14'0 0.0
2017-Sep-11 14:30N 30°01' W 093°14'0 0.0
2017-Sep-11 14:00N 30°01' W 093°14'0 0.0
2017-Sep-11 13:28N 30°01' W 093°14'0 0.0
2017-Sep-11 12:01N 30°01' W 093°14'0 0.0
2017-Sep-11 12:00N 30°01' W 093°14'0 0.0
2017-Sep-11 11:28N 30°01' W 093°14'0 0.0
2017-Sep-11 11:00N 30°01' W 093°14'0 0.0
2017-Sep-11 10:30N 30°01' W 093°14'1 2.0
2017-Sep-11 09:57N 29°60' W 093°13'3 6.4
2017-Sep-11 09:30N 29°57' W 093°11'3 6.0
2017-Sep-11 09:00N 29°56' W 093°08'46 5.8
2017-Sep-11 01:05N 29°48' W 092°15'0 5.7
2017-Sep-11 01:00N 29°48' W 092°15'3 5.3
2017-Sep-11 00:30N 29°47' W 092°12'3 5.4
2017-Sep-11 00:00N 29°47' W 092°09'3 5.9
2017-Sep-10 23:30N 29°48' W 092°06'70 5.7
2017-Sep-10 11:18N 29°32' W 090°48'2 5.3
2017-Sep-10 11:00N 29°32' W 090°46'2 5.0
2017-Sep-10 10:30N 29°34' W 090°44'3 5.0
2017-Sep-10 10:00N 29°36' W 090°43'2 3.3
2017-Sep-10 09:30N 29°36' W 090°41'3 5.1
2017-Sep-10 09:00N 29°35' W 090°38'2 4.9
2017-Sep-10 08:30N 29°35' W 090°35'  
Track history (hours):
 
Tides and Currents Weather Stations Pressure Air Temp Water Temp Dewpoint Dewpoint Depression Visibility Wind Speed Wind Dir Waves Ship Positions

Dewey R

Owner: Apex Towing Company a division of Apex Oil Company, St. Louis, MO. More information available from US FCC via Universal Licensing System and Coast Guard Vessel Documentation Center.

Last reported at 2017-Sep-15 13:46 UTC. Time now 2017-Sep-20 18:14 UTC.
Position N 32°45' W 091°09'.

Length 8 m; draft 3 m.

MMSI: 367002540.

Date/timePositionNaut miles runAvg speedWind from/ knotsBaromVisibWave heightAir tempDewpointWater temp
2017-Sep-15 13:46N 32°45' W 091°09'5 2.4
2017-Sep-15 11:47N 32°40' W 091°08'5 4.2
2017-Sep-15 10:41N 32°35' W 091°08'1 5.5
2017-Sep-15 10:30N 32°35' W 091°07'5 4.9
2017-Sep-15 09:31N 32°30' W 091°07'0 6.1
2017-Sep-15 09:30N 32°30' W 091°07'3 5.8
2017-Sep-15 09:00N 32°27' W 091°05'3 5.8
2017-Sep-15 08:30N 32°26' W 091°02'3 5.3
2017-Sep-15 08:00N 32°25' W 090°60'2 4.8
2017-Sep-15 07:30N 32°22' W 091°00'2 4.9
2017-Sep-15 07:00N 32°21' W 090°58'3 5.6
2017-Sep-15 06:30N 32°21' W 090°55'2 4.8
2017-Sep-15 06:00N 32°18' W 090°55'3 5.9
2017-Sep-15 05:30N 32°16' W 090°58'3 5.4
2017-Sep-15 05:00N 32°14' W 090°59'3 5.8
2017-Sep-15 04:30N 32°11' W 090°60'3 5.5
2017-Sep-15 04:00N 32°08' W 091°00'2 4.8
2017-Sep-15 03:30N 32°07' W 091°03'3 5.3
2017-Sep-15 02:59N 32°08' W 091°06'  
2017-Sep-12 18:22N 29°48' W 092°05'2 5.6
2017-Sep-12 18:00N 29°47' W 092°08'1 2.6
2017-Sep-12 17:30N 29°47' W 092°09'0 0.0
2017-Sep-12 17:00N 29°47' W 092°09'0 0.0
2017-Sep-12 16:30N 29°47' W 092°09'0 0.0
2017-Sep-12 16:00N 29°47' W 092°09'0 0.0
2017-Sep-12 15:30N 29°47' W 092°09'0 0.0
2017-Sep-12 15:00N 29°47' W 092°09'0 0.1
2017-Sep-12 14:30N 29°47' W 092°09'3 5.5
2017-Sep-12 14:00N 29°47' W 092°12'2 4.1
2017-Sep-12 13:29N 29°48' W 092°15'0 0.6
2017-Sep-12 12:57N 29°48' W 092°15'45 5.4
2017-Sep-12 04:39N 29°56' W 093°06'1 5.1
2017-Sep-12 04:28N 29°56' W 093°07'2 5.0
2017-Sep-12 04:00N 29°56' W 093°10'3 5.2
2017-Sep-12 03:30N 29°58' W 093°12'3 5.0
2017-Sep-12 03:00N 30°00' W 093°13'2 4.6
2017-Sep-12 02:30N 30°02' W 093°15'2 4.7
2017-Sep-12 02:00N 30°04' W 093°16'2 4.6
2017-Sep-12 01:30N 30°06' W 093°18'2 3.9
2017-Sep-12 01:00N 30°05' W 093°20'2 3.8
2017-Sep-12 00:30N 30°04' W 093°22'0 0.0
2017-Sep-12 00:00N 30°04' W 093°22'0 0.0
2017-Sep-11 23:30N 30°04' W 093°22'0 0.0
2017-Sep-11 23:00N 30°04' W 093°22'0 0.0
2017-Sep-11 22:30N 30°04' W 093°22'0 0.0
2017-Sep-11 22:00N 30°04' W 093°22'0 0.0
2017-Sep-11 21:30N 30°04' W 093°22'1 1.6
2017-Sep-11 21:00N 30°04' W 093°21'3 5.9
2017-Sep-11 20:30N 30°06' W 093°19'3 5.8
2017-Sep-11 20:00N 30°04' W 093°16'3 5.6
2017-Sep-11 19:30N 30°02' W 093°15'1 2.8
2017-Sep-11 19:00N 30°01' W 093°14'0 0.0
2017-Sep-11 18:30N 30°01' W 093°14'0 0.0
2017-Sep-11 18:00N 30°01' W 093°14'0 0.0
2017-Sep-11 17:30N 30°01' W 093°14'0 0.0
2017-Sep-11 17:00N 30°01' W 093°14'0 0.0
2017-Sep-11 16:30N 30°01' W 093°14'0 0.0
2017-Sep-11 16:00N 30°01' W 093°14'0 0.0
2017-Sep-11 15:30N 30°01' W 093°14'0 0.0
2017-Sep-11 14:52N 30°01' W 093°14'0 0.0
2017-Sep-11 14:30N 30°01' W 093°14'0 0.0
2017-Sep-11 14:00N 30°01' W 093°14'0 0.0
2017-Sep-11 13:28N 30°01' W 093°14'0 0.0
2017-Sep-11 12:01N 30°01' W 093°14'0 0.0
2017-Sep-11 12:00N 30°01' W 093°14'0 0.0
2017-Sep-11 11:28N 30°01' W 093°14'0 0.0
2017-Sep-11 11:00N 30°01' W 093°14'0 0.0
2017-Sep-11 10:30N 30°01' W 093°14'1 2.0
2017-Sep-11 09:57N 29°60' W 093°13'3 6.4
2017-Sep-11 09:30N 29°57' W 093°11'3 6.0
2017-Sep-11 09:00N 29°56' W 093°08'46 5.8
2017-Sep-11 01:05N 29°48' W 092°15'0 5.7
2017-Sep-11 01:00N 29°48' W 092°15'3 5.3
2017-Sep-11 00:30N 29°47' W 092°12'3 5.4
2017-Sep-11 00:00N 29°47' W 092°09'3 5.9
2017-Sep-10 23:30N 29°48' W 092°06'70 5.7
2017-Sep-10 11:18N 29°32' W 090°48'2 5.3
2017-Sep-10 11:00N 29°32' W 090°46'2 5.0
2017-Sep-10 10:30N 29°34' W 090°44'3 5.0
2017-Sep-10 10:00N 29°36' W 090°43'2 3.3
2017-Sep-10 09:30N 29°36' W 090°41'3 5.1
2017-Sep-10 09:00N 29°35' W 090°38'2 4.9
2017-Sep-10 08:30N 29°35' W 090°35'  

Dump ship's entire track history